sensor_id;sensor_type;location;lat;lon;timestamp;P1;durP1;ratioP1;P2;durP2;ratioP2
13321;SDS011;6730;46.248;6.930;2023-03-01T00:01:35;14.03;;;8.83;;
13321;SDS011;6730;46.248;6.930;2023-03-01T00:04:00;10.77;;;7.57;;
13321;SDS011;6730;46.248;6.930;2023-03-01T00:06:26;15.40;;;9.20;;
13321;SDS011;6730;46.248;6.930;2023-03-01T00:08:52;12.10;;;8.77;;
13321;SDS011;6730;46.248;6.930;2023-03-01T00:11:20;12.07;;;8.87;;
13321;SDS011;6730;46.248;6.930;2023-03-01T00:13:48;13.40;;;8.73;;
13321;SDS011;6730;46.248;6.930;2023-03-01T00:16:25;14.50;;;9.10;;
13321;SDS011;6730;46.248;6.930;2023-03-01T00:18:54;13.00;;;8.53;;
13321;SDS011;6730;46.248;6.930;2023-03-01T00:21:23;13.37;;;9.60;;
13321;SDS011;6730;46.248;6.930;2023-03-01T00:23:50;11.23;;;7.90;;
13321;SDS011;6730;46.248;6.930;2023-03-01T00:26:16;12.50;;;8.30;;
13321;SDS011;6730;46.248;6.930;2023-03-01T00:28:42;13.63;;;9.70;;
13321;SDS011;6730;46.248;6.930;2023-03-01T00:31:13;12.30;;;8.30;;
13321;SDS011;6730;46.248;6.930;2023-03-01T00:33:41;12.43;;;8.40;;
13321;SDS011;6730;46.248;6.930;2023-03-01T00:36:09;11.60;;;9.10;;
13321;SDS011;6730;46.248;6.930;2023-03-01T00:38:37;12.87;;;8.90;;
13321;SDS011;6730;46.248;6.930;2023-03-01T00:41:04;15.33;;;9.73;;
13321;SDS011;6730;46.248;6.930;2023-03-01T00:43:32;11.77;;;8.17;;
13321;SDS011;6730;46.248;6.930;2023-03-01T00:46:02;14.27;;;10.50;;
13321;SDS011;6730;46.248;6.930;2023-03-01T00:48:32;14.47;;;9.70;;
13321;SDS011;6730;46.248;6.930;2023-03-01T00:51:03;11.27;;;8.43;;
13321;SDS011;6730;46.248;6.930;2023-03-01T00:53:40;11.67;;;9.33;;
13321;SDS011;6730;46.248;6.930;2023-03-01T00:56:07;12.90;;;9.23;;
13321;SDS011;6730;46.248;6.930;2023-03-01T00:58:34;13.53;;;8.97;;
13321;SDS011;6730;46.248;6.930;2023-03-01T01:01:00;13.23;;;10.10;;
13321;SDS011;6730;46.248;6.930;2023-03-01T01:03:31;11.10;;;8.90;;
13321;SDS011;6730;46.248;6.930;2023-03-01T01:05:57;11.73;;;8.73;;
13321;SDS011;6730;46.248;6.930;2023-03-01T01:08:23;13.37;;;9.13;;
13321;SDS011;6730;46.248;6.930;2023-03-01T01:10:48;11.87;;;9.33;;
13321;SDS011;6730;46.248;6.930;2023-03-01T01:13:14;14.93;;;9.17;;
13321;SDS011;6730;46.248;6.930;2023-03-01T01:15:40;11.77;;;8.90;;
13321;SDS011;6730;46.248;6.930;2023-03-01T01:18:06;13.40;;;9.13;;
13321;SDS011;6730;46.248;6.930;2023-03-01T01:20:32;13.33;;;9.23;;
13321;SDS011;6730;46.248;6.930;2023-03-01T01:22:59;12.53;;;8.50;;
13321;SDS011;6730;46.248;6.930;2023-03-01T01:25:25;14.70;;;10.40;;
13321;SDS011;6730;46.248;6.930;2023-03-01T01:27:51;14.77;;;9.57;;
13321;SDS011;6730;46.248;6.930;2023-03-01T01:30:17;14.13;;;9.57;;
13321;SDS011;6730;46.248;6.930;2023-03-01T01:32:42;12.37;;;8.97;;
13321;SDS011;6730;46.248;6.930;2023-03-01T01:35:08;14.53;;;9.67;;
13321;SDS011;6730;46.248;6.930;2023-03-01T01:37:34;10.20;;;8.17;;
13321;SDS011;6730;46.248;6.930;2023-03-01T01:40:00;14.63;;;9.43;;
13321;SDS011;6730;46.248;6.930;2023-03-01T01:42:29;12.20;;;9.27;;
13321;SDS011;6730;46.248;6.930;2023-03-01T01:47:51;12.30;;;8.67;;
13321;SDS011;6730;46.248;6.930;2023-03-01T01:50:19;13.17;;;9.10;;
13321;SDS011;6730;46.248;6.930;2023-03-01T01:52:44;14.83;;;9.87;;
13321;SDS011;6730;46.248;6.930;2023-03-01T01:55:12;16.27;;;10.10;;
13321;SDS011;6730;46.248;6.930;2023-03-01T01:57:48;12.67;;;9.00;;
13321;SDS011;6730;46.248;6.930;2023-03-01T02:00:19;17.07;;;10.50;;
13321;SDS011;6730;46.248;6.930;2023-03-01T02:02:47;15.47;;;9.80;;
13321;SDS011;6730;46.248;6.930;2023-03-01T02:07:54;14.63;;;9.50;;
13321;SDS011;6730;46.248;6.930;2023-03-01T02:10:22;15.57;;;9.67;;
13321;SDS011;6730;46.248;6.930;2023-03-01T02:12:49;12.07;;;8.63;;
13321;SDS011;6730;46.248;6.930;2023-03-01T02:15:16;14.10;;;9.47;;
13321;SDS011;6730;46.248;6.930;2023-03-01T02:17:41;13.50;;;9.43;;
13321;SDS011;6730;46.248;6.930;2023-03-01T02:22:46;14.80;;;9.63;;
13321;SDS011;6730;46.248;6.930;2023-03-01T02:27:50;12.10;;;8.90;;
13321;SDS011;6730;46.248;6.930;2023-03-01T02:30:26;11.53;;;8.37;;
13321;SDS011;6730;46.248;6.930;2023-03-01T02:32:54;15.87;;;9.93;;
13321;SDS011;6730;46.248;6.930;2023-03-01T02:35:27;12.23;;;8.00;;
13321;SDS011;6730;46.248;6.930;2023-03-01T02:37:57;11.40;;;8.90;;
13321;SDS011;6730;46.248;6.930;2023-03-01T02:40:26;15.70;;;10.97;;
13321;SDS011;6730;46.248;6.930;2023-03-01T02:42:56;12.37;;;9.10;;
13321;SDS011;6730;46.248;6.930;2023-03-01T02:45:23;15.53;;;10.70;;
13321;SDS011;6730;46.248;6.930;2023-03-01T02:47:50;16.97;;;11.13;;
13321;SDS011;6730;46.248;6.930;2023-03-01T02:50:22;15.87;;;10.63;;
13321;SDS011;6730;46.248;6.930;2023-03-01T02:53:13;17.47;;;10.57;;
13321;SDS011;6730;46.248;6.930;2023-03-01T02:55:40;14.20;;;9.40;;
13321;SDS011;6730;46.248;6.930;2023-03-01T02:58:06;13.70;;;9.30;;
13321;SDS011;6730;46.248;6.930;2023-03-01T03:00:37;13.60;;;9.30;;
13321;SDS011;6730;46.248;6.930;2023-03-01T03:03:21;14.50;;;10.10;;
13321;SDS011;6730;46.248;6.930;2023-03-01T03:05:47;13.77;;;9.03;;
13321;SDS011;6730;46.248;6.930;2023-03-01T03:08:13;16.70;;;11.03;;
13321;SDS011;6730;46.248;6.930;2023-03-01T03:10:48;14.23;;;10.17;;
13321;SDS011;6730;46.248;6.930;2023-03-01T03:13:14;13.63;;;10.03;;
13321;SDS011;6730;46.248;6.930;2023-03-01T03:15:40;14.97;;;10.60;;
13321;SDS011;6730;46.248;6.930;2023-03-01T03:18:08;16.63;;;10.30;;
13321;SDS011;6730;46.248;6.930;2023-03-01T03:20:36;14.20;;;10.13;;
13321;SDS011;6730;46.248;6.930;2023-03-01T03:23:02;16.90;;;9.77;;
13321;SDS011;6730;46.248;6.930;2023-03-01T03:25:29;15.37;;;10.10;;
13321;SDS011;6730;46.248;6.930;2023-03-01T03:27:55;15.63;;;10.20;;
13321;SDS011;6730;46.248;6.930;2023-03-01T03:30:22;14.83;;;10.03;;
13321;SDS011;6730;46.248;6.930;2023-03-01T03:32:50;11.97;;;9.20;;
13321;SDS011;6730;46.248;6.930;2023-03-01T03:35:22;12.80;;;9.40;;
13321;SDS011;6730;46.248;6.930;2023-03-01T03:37:56;14.43;;;9.53;;
13321;SDS011;6730;46.248;6.930;2023-03-01T03:40:37;12.03;;;8.93;;
13321;SDS011;6730;46.248;6.930;2023-03-01T03:43:06;16.23;;;10.67;;
13321;SDS011;6730;46.248;6.930;2023-03-01T03:45:33;15.43;;;10.67;;
13321;SDS011;6730;46.248;6.930;2023-03-01T03:48:00;13.30;;;8.80;;
13321;SDS011;6730;46.248;6.930;2023-03-01T03:50:27;14.30;;;10.27;;
13321;SDS011;6730;46.248;6.930;2023-03-01T03:52:52;14.33;;;9.83;;
13321;SDS011;6730;46.248;6.930;2023-03-01T03:55:18;13.13;;;9.17;;
13321;SDS011;6730;46.248;6.930;2023-03-01T03:57:45;14.77;;;10.40;;
13321;SDS011;6730;46.248;6.930;2023-03-01T04:00:20;16.47;;;11.40;;
13321;SDS011;6730;46.248;6.930;2023-03-01T04:02:48;14.83;;;10.63;;
13321;SDS011;6730;46.248;6.930;2023-03-01T04:05:15;13.87;;;10.23;;
13321;SDS011;6730;46.248;6.930;2023-03-01T04:07:43;15.77;;;11.60;;
13321;SDS011;6730;46.248;6.930;2023-03-01T04:10:15;18.10;;;12.07;;
13321;SDS011;6730;46.248;6.930;2023-03-01T04:12:42;14.80;;;11.03;;
13321;SDS011;6730;46.248;6.930;2023-03-01T04:15:08;16.83;;;11.70;;
13321;SDS011;6730;46.248;6.930;2023-03-01T04:17:47;18.50;;;12.37;;
13321;SDS011;6730;46.248;6.930;2023-03-01T04:20:15;16.07;;;11.07;;
13321;SDS011;6730;46.248;6.930;2023-03-01T04:22:51;16.57;;;11.43;;
13321;SDS011;6730;46.248;6.930;2023-03-01T04:25:17;15.77;;;10.47;;
13321;SDS011;6730;46.248;6.930;2023-03-01T04:27:43;13.43;;;9.40;;
13321;SDS011;6730;46.248;6.930;2023-03-01T04:30:09;15.07;;;10.17;;
13321;SDS011;6730;46.248;6.930;2023-03-01T04:32:35;14.43;;;10.00;;
13321;SDS011;6730;46.248;6.930;2023-03-01T04:35:01;16.23;;;10.43;;
13321;SDS011;6730;46.248;6.930;2023-03-01T04:37:26;15.07;;;9.87;;
13321;SDS011;6730;46.248;6.930;2023-03-01T04:39:52;16.17;;;10.43;;
13321;SDS011;6730;46.248;6.930;2023-03-01T04:42:18;16.00;;;9.87;;
13321;SDS011;6730;46.248;6.930;2023-03-01T04:44:44;18.07;;;10.13;;
13321;SDS011;6730;46.248;6.930;2023-03-01T04:47:10;16.67;;;10.47;;
13321;SDS011;6730;46.248;6.930;2023-03-01T04:49:36;15.53;;;10.57;;
13321;SDS011;6730;46.248;6.930;2023-03-01T04:52:02;14.90;;;9.87;;
13321;SDS011;6730;46.248;6.930;2023-03-01T04:54:32;12.87;;;9.13;;
13321;SDS011;6730;46.248;6.930;2023-03-01T04:56:58;15.87;;;9.70;;
13321;SDS011;6730;46.248;6.930;2023-03-01T04:59:24;15.20;;;10.30;;
13321;SDS011;6730;46.248;6.930;2023-03-01T05:01:50;15.13;;;10.47;;
13321;SDS011;6730;46.248;6.930;2023-03-01T05:04:17;13.43;;;10.37;;
13321;SDS011;6730;46.248;6.930;2023-03-01T05:06:43;16.60;;;10.53;;
13321;SDS011;6730;46.248;6.930;2023-03-01T05:09:09;14.03;;;9.63;;
13321;SDS011;6730;46.248;6.930;2023-03-01T05:11:36;12.73;;;9.07;;
13321;SDS011;6730;46.248;6.930;2023-03-01T05:14:02;14.97;;;9.30;;
13321;SDS011;6730;46.248;6.930;2023-03-01T05:16:29;13.80;;;9.03;;
13321;SDS011;6730;46.248;6.930;2023-03-01T05:18:56;14.13;;;10.07;;
13321;SDS011;6730;46.248;6.930;2023-03-01T05:21:21;15.20;;;9.37;;
13321;SDS011;6730;46.248;6.930;2023-03-01T05:23:47;15.07;;;9.37;;
13321;SDS011;6730;46.248;6.930;2023-03-01T05:26:13;13.00;;;8.50;;
13321;SDS011;6730;46.248;6.930;2023-03-01T05:28:40;15.00;;;9.50;;
13321;SDS011;6730;46.248;6.930;2023-03-01T05:31:06;14.73;;;10.13;;
13321;SDS011;6730;46.248;6.930;2023-03-01T05:33:37;18.70;;;10.90;;
13321;SDS011;6730;46.248;6.930;2023-03-01T05:36:04;16.97;;;11.60;;
13321;SDS011;6730;46.248;6.930;2023-03-01T05:38:32;19.20;;;12.17;;
13321;SDS011;6730;46.248;6.930;2023-03-01T05:40:58;18.10;;;12.87;;
13321;SDS011;6730;46.248;6.930;2023-03-01T05:43:24;18.50;;;12.63;;
13321;SDS011;6730;46.248;6.930;2023-03-01T05:45:49;19.33;;;12.27;;
13321;SDS011;6730;46.248;6.930;2023-03-01T05:48:16;18.17;;;11.70;;
13321;SDS011;6730;46.248;6.930;2023-03-01T05:50:44;13.13;;;9.27;;
13321;SDS011;6730;46.248;6.930;2023-03-01T05:53:16;16.33;;;11.17;;
13321;SDS011;6730;46.248;6.930;2023-03-01T05:55:44;19.33;;;12.77;;
13321;SDS011;6730;46.248;6.930;2023-03-01T05:58:13;18.23;;;11.87;;
13321;SDS011;6730;46.248;6.930;2023-03-01T06:00:41;18.33;;;12.03;;
13321;SDS011;6730;46.248;6.930;2023-03-01T06:03:09;16.00;;;10.93;;
13321;SDS011;6730;46.248;6.930;2023-03-01T06:05:36;17.83;;;12.13;;
13321;SDS011;6730;46.248;6.930;2023-03-01T06:08:02;16.83;;;10.90;;
13321;SDS011;6730;46.248;6.930;2023-03-01T06:10:28;15.77;;;11.50;;
13321;SDS011;6730;46.248;6.930;2023-03-01T06:12:54;17.90;;;11.20;;
13321;SDS011;6730;46.248;6.930;2023-03-01T06:15:20;18.37;;;11.37;;
13321;SDS011;6730;46.248;6.930;2023-03-01T06:17:47;16.73;;;11.57;;
13321;SDS011;6730;46.248;6.930;2023-03-01T06:20:14;15.50;;;10.43;;
13321;SDS011;6730;46.248;6.930;2023-03-01T06:22:40;17.63;;;10.90;;
13321;SDS011;6730;46.248;6.930;2023-03-01T06:25:06;15.57;;;10.13;;
13321;SDS011;6730;46.248;6.930;2023-03-01T06:27:34;16.33;;;10.43;;
13321;SDS011;6730;46.248;6.930;2023-03-01T06:30:00;15.97;;;10.47;;
13321;SDS011;6730;46.248;6.930;2023-03-01T06:32:26;16.10;;;11.00;;
13321;SDS011;6730;46.248;6.930;2023-03-01T06:34:52;17.17;;;11.60;;
13321;SDS011;6730;46.248;6.930;2023-03-01T06:37:17;15.57;;;10.80;;
13321;SDS011;6730;46.248;6.930;2023-03-01T06:39:43;14.60;;;10.60;;
13321;SDS011;6730;46.248;6.930;2023-03-01T06:42:09;14.17;;;9.83;;
13321;SDS011;6730;46.248;6.930;2023-03-01T06:44:35;14.47;;;9.73;;
13321;SDS011;6730;46.248;6.930;2023-03-01T06:47:01;14.53;;;9.97;;
13321;SDS011;6730;46.248;6.930;2023-03-01T06:49:28;15.33;;;9.97;;
13321;SDS011;6730;46.248;6.930;2023-03-01T06:51:53;16.30;;;11.23;;
13321;SDS011;6730;46.248;6.930;2023-03-01T06:54:19;18.60;;;11.57;;
13321;SDS011;6730;46.248;6.930;2023-03-01T06:56:47;18.73;;;12.00;;
13321;SDS011;6730;46.248;6.930;2023-03-01T06:59:13;18.87;;;12.27;;
13321;SDS011;6730;46.248;6.930;2023-03-01T07:01:40;14.60;;;10.40;;
13321;SDS011;6730;46.248;6.930;2023-03-01T07:04:06;15.80;;;12.30;;
13321;SDS011;6730;46.248;6.930;2023-03-01T07:06:31;16.47;;;10.87;;
13321;SDS011;6730;46.248;6.930;2023-03-01T07:08:57;16.53;;;10.90;;
13321;SDS011;6730;46.248;6.930;2023-03-01T07:11:23;16.83;;;11.73;;
13321;SDS011;6730;46.248;6.930;2023-03-01T07:13:49;19.43;;;12.80;;
13321;SDS011;6730;46.248;6.930;2023-03-01T07:16:15;17.83;;;12.00;;
13321;SDS011;6730;46.248;6.930;2023-03-01T07:18:41;18.23;;;11.20;;
13321;SDS011;6730;46.248;6.930;2023-03-01T07:21:11;16.43;;;11.03;;
13321;SDS011;6730;46.248;6.930;2023-03-01T07:23:38;17.13;;;11.10;;
13321;SDS011;6730;46.248;6.930;2023-03-01T07:26:04;15.60;;;11.17;;
13321;SDS011;6730;46.248;6.930;2023-03-01T07:28:29;16.33;;;10.90;;
13321;SDS011;6730;46.248;6.930;2023-03-01T07:31:00;18.37;;;12.17;;
13321;SDS011;6730;46.248;6.930;2023-03-01T07:33:29;17.03;;;12.20;;
13321;SDS011;6730;46.248;6.930;2023-03-01T07:35:56;17.37;;;11.87;;
13321;SDS011;6730;46.248;6.930;2023-03-01T07:38:26;14.53;;;10.07;;
13321;SDS011;6730;46.248;6.930;2023-03-01T07:40:52;15.03;;;9.83;;
13321;SDS011;6730;46.248;6.930;2023-03-01T07:43:22;15.53;;;9.93;;
13321;SDS011;6730;46.248;6.930;2023-03-01T07:45:47;16.17;;;10.27;;
13321;SDS011;6730;46.248;6.930;2023-03-01T07:48:13;17.23;;;11.03;;
13321;SDS011;6730;46.248;6.930;2023-03-01T07:50:39;15.50;;;10.10;;
13321;SDS011;6730;46.248;6.930;2023-03-01T07:53:04;15.03;;;10.90;;
13321;SDS011;6730;46.248;6.930;2023-03-01T07:55:30;16.63;;;11.57;;
13321;SDS011;6730;46.248;6.930;2023-03-01T07:57:56;16.10;;;11.23;;
13321;SDS011;6730;46.248;6.930;2023-03-01T08:00:21;16.17;;;10.50;;
13321;SDS011;6730;46.248;6.930;2023-03-01T08:02:47;15.27;;;9.93;;
13321;SDS011;6730;46.248;6.930;2023-03-01T08:05:13;15.83;;;10.67;;
13321;SDS011;6730;46.248;6.930;2023-03-01T08:07:38;18.67;;;11.10;;
13321;SDS011;6730;46.248;6.930;2023-03-01T08:10:04;16.53;;;11.20;;
13321;SDS011;6730;46.248;6.930;2023-03-01T08:12:30;18.40;;;12.00;;
13321;SDS011;6730;46.248;6.930;2023-03-01T08:14:56;17.20;;;10.67;;
13321;SDS011;6730;46.248;6.930;2023-03-01T08:17:22;16.93;;;10.77;;
13321;SDS011;6730;46.248;6.930;2023-03-01T08:19:47;15.40;;;9.70;;
13321;SDS011;6730;46.248;6.930;2023-03-01T08:22:13;18.80;;;12.63;;
13321;SDS011;6730;46.248;6.930;2023-03-01T08:24:39;15.67;;;11.23;;
13321;SDS011;6730;46.248;6.930;2023-03-01T08:27:05;17.77;;;12.53;;
13321;SDS011;6730;46.248;6.930;2023-03-01T08:29:31;16.80;;;11.93;;
13321;SDS011;6730;46.248;6.930;2023-03-01T08:31:57;17.83;;;12.63;;
13321;SDS011;6730;46.248;6.930;2023-03-01T08:34:23;15.33;;;11.03;;
13321;SDS011;6730;46.248;6.930;2023-03-01T08:36:48;17.73;;;12.27;;
13321;SDS011;6730;46.248;6.930;2023-03-01T08:39:17;18.17;;;12.37;;
13321;SDS011;6730;46.248;6.930;2023-03-01T08:41:44;20.10;;;12.53;;
13321;SDS011;6730;46.248;6.930;2023-03-01T08:44:11;18.93;;;12.27;;
13321;SDS011;6730;46.248;6.930;2023-03-01T08:46:38;19.70;;;12.87;;
13321;SDS011;6730;46.248;6.930;2023-03-01T08:49:13;20.40;;;13.07;;
13321;SDS011;6730;46.248;6.930;2023-03-01T08:51:40;18.50;;;12.27;;
13321;SDS011;6730;46.248;6.930;2023-03-01T08:54:07;18.03;;;13.57;;
13321;SDS011;6730;46.248;6.930;2023-03-01T08:56:37;20.57;;;11.97;;
13321;SDS011;6730;46.248;6.930;2023-03-01T08:59:02;17.83;;;11.43;;
13321;SDS011;6730;46.248;6.930;2023-03-01T09:01:28;21.10;;;13.03;;
13321;SDS011;6730;46.248;6.930;2023-03-01T09:03:54;17.67;;;12.33;;
13321;SDS011;6730;46.248;6.930;2023-03-01T09:06:20;21.73;;;13.23;;
13321;SDS011;6730;46.248;6.930;2023-03-01T09:08:46;13.77;;;10.23;;
13321;SDS011;6730;46.248;6.930;2023-03-01T09:11:15;16.47;;;11.07;;
13321;SDS011;6730;46.248;6.930;2023-03-01T09:13:42;17.07;;;11.60;;
13321;SDS011;6730;46.248;6.930;2023-03-01T09:16:09;18.67;;;11.43;;
13321;SDS011;6730;46.248;6.930;2023-03-01T09:18:37;16.17;;;11.53;;
13321;SDS011;6730;46.248;6.930;2023-03-01T09:23:32;14.87;;;10.90;;
13321;SDS011;6730;46.248;6.930;2023-03-01T09:26:02;18.83;;;11.67;;
13321;SDS011;6730;46.248;6.930;2023-03-01T09:28:28;16.93;;;11.47;;
13321;SDS011;6730;46.248;6.930;2023-03-01T09:30:57;19.93;;;11.77;;
13321;SDS011;6730;46.248;6.930;2023-03-01T09:33:27;16.07;;;11.43;;
13321;SDS011;6730;46.248;6.930;2023-03-01T09:36:04;18.33;;;12.43;;
13321;SDS011;6730;46.248;6.930;2023-03-01T09:38:32;15.30;;;10.30;;
13321;SDS011;6730;46.248;6.930;2023-03-01T09:40:59;19.13;;;12.67;;
13321;SDS011;6730;46.248;6.930;2023-03-01T09:43:45;17.20;;;11.47;;
13321;SDS011;6730;46.248;6.930;2023-03-01T09:46:19;18.30;;;11.43;;
13321;SDS011;6730;46.248;6.930;2023-03-01T09:49:01;18.97;;;12.80;;
13321;SDS011;6730;46.248;6.930;2023-03-01T09:51:34;24.73;;;14.97;;
13321;SDS011;6730;46.248;6.930;2023-03-01T09:54:04;18.87;;;12.80;;
13321;SDS011;6730;46.248;6.930;2023-03-01T10:01:47;17.93;;;12.87;;
13321;SDS011;6730;46.248;6.930;2023-03-01T10:04:24;15.97;;;11.23;;
13321;SDS011;6730;46.248;6.930;2023-03-01T10:10:00;15.40;;;11.00;;
13321;SDS011;6730;46.248;6.930;2023-03-01T10:12:33;16.67;;;11.33;;
13321;SDS011;6730;46.248;6.930;2023-03-01T10:17:41;15.33;;;10.97;;
13321;SDS011;6730;46.248;6.930;2023-03-01T10:20:22;17.67;;;10.97;;
13321;SDS011;6730;46.248;6.930;2023-03-01T10:22:50;15.10;;;10.70;;
13321;SDS011;6730;46.248;6.930;2023-03-01T10:28:10;15.03;;;10.20;;
13321;SDS011;6730;46.248;6.930;2023-03-01T10:30:53;14.67;;;10.53;;
13321;SDS011;6730;46.248;6.930;2023-03-01T10:35:46;14.97;;;10.40;;
13321;SDS011;6730;46.248;6.930;2023-03-01T10:38:13;16.77;;;10.87;;
13321;SDS011;6730;46.248;6.930;2023-03-01T10:40:53;12.07;;;8.50;;
13321;SDS011;6730;46.248;6.930;2023-03-01T10:43:19;16.63;;;10.63;;
13321;SDS011;6730;46.248;6.930;2023-03-01T10:45:47;14.37;;;10.50;;
13321;SDS011;6730;46.248;6.930;2023-03-01T10:48:16;15.47;;;10.40;;
13321;SDS011;6730;46.248;6.930;2023-03-01T10:51:04;14.57;;;9.63;;
13321;SDS011;6730;46.248;6.930;2023-03-01T10:53:36;15.23;;;10.10;;
13321;SDS011;6730;46.248;6.930;2023-03-01T10:58:34;13.20;;;8.57;;
13321;SDS011;6730;46.248;6.930;2023-03-01T11:01:03;13.97;;;8.93;;
13321;SDS011;6730;46.248;6.930;2023-03-01T11:03:32;16.57;;;9.93;;
13321;SDS011;6730;46.248;6.930;2023-03-01T11:06:02;11.00;;;7.90;;
13321;SDS011;6730;46.248;6.930;2023-03-01T11:08:41;13.70;;;9.00;;
13321;SDS011;6730;46.248;6.930;2023-03-01T11:16:33;16.10;;;9.33;;
13321;SDS011;6730;46.248;6.930;2023-03-01T11:21:39;13.90;;;10.17;;
13321;SDS011;6730;46.248;6.930;2023-03-01T11:24:17;18.60;;;12.10;;
13321;SDS011;6730;46.248;6.930;2023-03-01T11:26:45;16.80;;;12.27;;
13321;SDS011;6730;46.248;6.930;2023-03-01T11:29:18;17.87;;;11.53;;
13321;SDS011;6730;46.248;6.930;2023-03-01T11:31:53;20.07;;;11.47;;
13321;SDS011;6730;46.248;6.930;2023-03-01T11:37:14;13.77;;;9.67;;
13321;SDS011;6730;46.248;6.930;2023-03-01T11:45:23;15.87;;;11.20;;
13321;SDS011;6730;46.248;6.930;2023-03-01T11:59:42;17.33;;;10.97;;
13321;SDS011;6730;46.248;6.930;2023-03-01T12:10:57;14.50;;;9.30;;
13321;SDS011;6730;46.248;6.930;2023-03-01T12:16:15;16.53;;;10.37;;
13321;SDS011;6730;46.248;6.930;2023-03-01T12:29:38;16.60;;;11.00;;
13321;SDS011;6730;46.248;6.930;2023-03-01T12:35:30;14.63;;;9.50;;
13321;SDS011;6730;46.248;6.930;2023-03-01T12:37:58;11.57;;;8.00;;
13321;SDS011;6730;46.248;6.930;2023-03-01T12:43:38;15.73;;;9.63;;
13321;SDS011;6730;46.248;6.930;2023-03-01T12:49:15;15.47;;;10.03;;
13321;SDS011;6730;46.248;6.930;2023-03-01T12:51:42;16.40;;;10.00;;
13321;SDS011;6730;46.248;6.930;2023-03-01T12:54:15;14.20;;;9.13;;
13321;SDS011;6730;46.248;6.930;2023-03-01T12:56:45;18.57;;;10.53;;
13321;SDS011;6730;46.248;6.930;2023-03-01T13:02:05;20.50;;;9.43;;
13321;SDS011;6730;46.248;6.930;2023-03-01T13:07:37;14.67;;;8.57;;
13321;SDS011;6730;46.248;6.930;2023-03-01T13:10:26;12.23;;;8.47;;
13321;SDS011;6730;46.248;6.930;2023-03-01T13:15:36;12.37;;;8.80;;
13321;SDS011;6730;46.248;6.930;2023-03-01T13:18:26;14.87;;;8.83;;
13321;SDS011;6730;46.248;6.930;2023-03-01T13:20:53;13.27;;;8.60;;
13321;SDS011;6730;46.248;6.930;2023-03-01T13:26:30;14.33;;;10.10;;
13321;SDS011;6730;46.248;6.930;2023-03-01T13:49:42;12.60;;;8.43;;
13321;SDS011;6730;46.248;6.930;2023-03-01T13:52:24;13.53;;;8.40;;
13321;SDS011;6730;46.248;6.930;2023-03-01T13:55:00;14.27;;;9.40;;
13321;SDS011;6730;46.248;6.930;2023-03-01T13:57:35;12.57;;;8.67;;
13321;SDS011;6730;46.248;6.930;2023-03-01T14:00:04;14.27;;;9.10;;
13321;SDS011;6730;46.248;6.930;2023-03-01T14:02:31;18.20;;;9.70;;
13321;SDS011;6730;46.248;6.930;2023-03-01T14:05:00;12.10;;;7.17;;
13321;SDS011;6730;46.248;6.930;2023-03-01T14:07:26;15.63;;;9.30;;
13321;SDS011;6730;46.248;6.930;2023-03-01T14:09:56;14.53;;;9.83;;
13321;SDS011;6730;46.248;6.930;2023-03-01T14:12:43;14.33;;;10.50;;
13321;SDS011;6730;46.248;6.930;2023-03-01T14:18:25;12.97;;;8.10;;
13321;SDS011;6730;46.248;6.930;2023-03-01T14:20:57;13.90;;;9.83;;
13321;SDS011;6730;46.248;6.930;2023-03-01T14:23:24;16.37;;;9.83;;
13321;SDS011;6730;46.248;6.930;2023-03-01T14:25:53;13.90;;;8.50;;
13321;SDS011;6730;46.248;6.930;2023-03-01T14:30:54;13.73;;;9.33;;
13321;SDS011;6730;46.248;6.930;2023-03-01T14:38:29;13.77;;;9.00;;
13321;SDS011;6730;46.248;6.930;2023-03-01T14:41:03;12.23;;;8.70;;
13321;SDS011;6730;46.248;6.930;2023-03-01T14:43:33;15.10;;;9.37;;
13321;SDS011;6730;46.248;6.930;2023-03-01T14:46:00;11.27;;;7.57;;
13321;SDS011;6730;46.248;6.930;2023-03-01T14:48:26;13.87;;;9.77;;
13321;SDS011;6730;46.248;6.930;2023-03-01T14:50:54;14.30;;;8.00;;
13321;SDS011;6730;46.248;6.930;2023-03-01T14:53:27;12.23;;;8.10;;
13321;SDS011;6730;46.248;6.930;2023-03-01T14:56:01;14.33;;;9.07;;
13321;SDS011;6730;46.248;6.930;2023-03-01T14:58:27;13.80;;;8.93;;
13321;SDS011;6730;46.248;6.930;2023-03-01T15:00:56;13.30;;;8.83;;
13321;SDS011;6730;46.248;6.930;2023-03-01T15:06:19;13.33;;;8.70;;
13321;SDS011;6730;46.248;6.930;2023-03-01T15:08:48;14.77;;;9.10;;
13321;SDS011;6730;46.248;6.930;2023-03-01T15:11:23;16.87;;;9.50;;
13321;SDS011;6730;46.248;6.930;2023-03-01T15:13:50;15.80;;;9.43;;
13321;SDS011;6730;46.248;6.930;2023-03-01T15:16:17;14.30;;;9.67;;
13321;SDS011;6730;46.248;6.930;2023-03-01T15:18:50;16.93;;;9.33;;
13321;SDS011;6730;46.248;6.930;2023-03-01T15:21:30;16.00;;;10.30;;
13321;SDS011;6730;46.248;6.930;2023-03-01T15:26:40;12.73;;;8.47;;
13321;SDS011;6730;46.248;6.930;2023-03-01T15:29:14;15.87;;;10.43;;
13321;SDS011;6730;46.248;6.930;2023-03-01T15:31:42;15.43;;;10.07;;
13321;SDS011;6730;46.248;6.930;2023-03-01T15:34:22;14.90;;;9.77;;
13321;SDS011;6730;46.248;6.930;2023-03-01T15:36:49;14.13;;;9.27;;
13321;SDS011;6730;46.248;6.930;2023-03-01T15:45:07;18.30;;;9.07;;
13321;SDS011;6730;46.248;6.930;2023-03-01T15:48:04;14.47;;;8.13;;
13321;SDS011;6730;46.248;6.930;2023-03-01T15:50:40;13.30;;;9.80;;
13321;SDS011;6730;46.248;6.930;2023-03-01T15:53:10;13.83;;;8.83;;
13321;SDS011;6730;46.248;6.930;2023-03-01T15:55:37;13.73;;;8.67;;
13321;SDS011;6730;46.248;6.930;2023-03-01T16:00:37;14.77;;;10.20;;
13321;SDS011;6730;46.248;6.930;2023-03-01T16:03:04;14.97;;;9.17;;
13321;SDS011;6730;46.248;6.930;2023-03-01T16:05:31;15.10;;;8.93;;
13321;SDS011;6730;46.248;6.930;2023-03-01T16:07:59;14.90;;;9.40;;
13321;SDS011;6730;46.248;6.930;2023-03-01T16:10:25;12.90;;;9.53;;
13321;SDS011;6730;46.248;6.930;2023-03-01T16:12:53;14.47;;;8.73;;
13321;SDS011;6730;46.248;6.930;2023-03-01T16:17:47;13.37;;;8.93;;
13321;SDS011;6730;46.248;6.930;2023-03-01T16:20:13;12.37;;;8.90;;
13321;SDS011;6730;46.248;6.930;2023-03-01T16:22:44;12.27;;;8.13;;
13321;SDS011;6730;46.248;6.930;2023-03-01T16:25:11;17.47;;;9.63;;
13321;SDS011;6730;46.248;6.930;2023-03-01T16:27:41;13.83;;;8.63;;
13321;SDS011;6730;46.248;6.930;2023-03-01T16:30:07;16.20;;;9.67;;
13321;SDS011;6730;46.248;6.930;2023-03-01T16:32:37;14.80;;;9.60;;
13321;SDS011;6730;46.248;6.930;2023-03-01T16:35:04;17.30;;;10.00;;
13321;SDS011;6730;46.248;6.930;2023-03-01T16:37:31;15.90;;;9.30;;
13321;SDS011;6730;46.248;6.930;2023-03-01T16:39:58;22.60;;;14.67;;
13321;SDS011;6730;46.248;6.930;2023-03-01T16:42:24;20.33;;;12.33;;
13321;SDS011;6730;46.248;6.930;2023-03-01T16:44:54;20.07;;;13.07;;
13321;SDS011;6730;46.248;6.930;2023-03-01T16:47:20;21.47;;;11.73;;
13321;SDS011;6730;46.248;6.930;2023-03-01T16:49:46;15.80;;;11.13;;
13321;SDS011;6730;46.248;6.930;2023-03-01T16:52:11;13.87;;;8.63;;
13321;SDS011;6730;46.248;6.930;2023-03-01T16:54:37;13.90;;;9.27;;
13321;SDS011;6730;46.248;6.930;2023-03-01T16:57:03;14.00;;;9.23;;
13321;SDS011;6730;46.248;6.930;2023-03-01T16:59:29;9.83;;;6.97;;
13321;SDS011;6730;46.248;6.930;2023-03-01T17:01:55;13.73;;;9.17;;
13321;SDS011;6730;46.248;6.930;2023-03-01T17:04:21;14.63;;;10.10;;
13321;SDS011;6730;46.248;6.930;2023-03-01T17:06:46;13.63;;;9.50;;
13321;SDS011;6730;46.248;6.930;2023-03-01T17:09:13;25.03;;;16.47;;
13321;SDS011;6730;46.248;6.930;2023-03-01T17:11:39;15.90;;;11.17;;
13321;SDS011;6730;46.248;6.930;2023-03-01T17:14:05;15.27;;;9.97;;
13321;SDS011;6730;46.248;6.930;2023-03-01T17:16:32;17.17;;;10.07;;
13321;SDS011;6730;46.248;6.930;2023-03-01T17:18:57;13.90;;;9.83;;
13321;SDS011;6730;46.248;6.930;2023-03-01T17:21:23;15.70;;;10.27;;